Amber, Washington
Current Conditions -  °F | °C
As of 10:15 PM on Wednesday 22 Oct 2014 (Local Time) from KSKA Reporting Station
Overcast Overcast  
Wind Chill: 50°   Ceiling: 5500
Heat Index: 50°   Visibility: 10mi
Dew Point: 48°   Wind: 12mph
Humidity: 94%   Direction: 150°SSE
Pressure: 29.75"   Gusts: NA
Location:  47.411°N, 117.628°W
Report Text: KSKA 230515Z AUTO 15010KT 10SM OVC055 10/09 A2975 RMK AO2
Loading
Personal Weather Stations






























Interactive Weather Map New forecast layout! Learn more

10-Day Weather Forecast

Advertisements
Track Severe Weather on mobile